Time;durP1;ratioP1;P1;durP2;ratioP2;P2;SDS_P1;SDS_P2;PMS_P1;PMS_P2;Temp;Humidity;BMP_temperature;BMP_pressure;BME280_temperature;BME280_humidity;BME280_pressure;Samples;Min_cycle;Max_cycle;Signal;HPM_P1;HPM_P2
2021/12/03 00:02:19;;;;;;;15.18;4.80;;;12.40;99.90;;;;;;5033053;28;20439;-73
2021/12/03 00:04:44;;;;;;;16.77;4.95;;;12.40;99.80;;;;;;5032888;28;20483;-74
2021/12/03 00:07:10;;;;;;;18.88;5.18;;;12.30;99.70;;;;;;5032508;28;20029;-73
2021/12/03 00:09:36;;;;;;;14.95;5.45;;;12.30;99.70;;;;;;5032771;28;20029;-73
2021/12/03 00:12:06;;;;;;;14.60;6.13;;;12.30;99.90;;;;;;5032607;28;20475;-74
2021/12/03 00:14:35;;;;;;;14.75;6.32;;;12.20;99.90;;;;;;5032343;28;20026;-73
2021/12/03 00:17:01;;;;;;;14.38;6.25;;;12.20;99.90;;;;;;5032472;28;20021;-74
2021/12/03 00:19:27;;;;;;;19.70;6.32;;;12.10;99.90;;;;;;5032617;28;20043;-74
2021/12/03 00:21:53;;;;;;;17.90;6.07;;;12.20;99.90;;;;;;5032605;28;20449;-74
2021/12/03 00:24:19;;;;;;;14.18;5.97;;;12.20;99.90;;;;;;5032602;28;20029;-75
2021/12/03 00:26:45;;;;;;;13.73;5.68;;;12.20;99.90;;;;;;5032359;28;20038;-74
2021/12/03 00:29:11;;;;;;;18.95;5.68;;;12.30;99.90;;;;;;5032469;28;20046;-73
2021/12/03 00:31:37;;;;;;;15.77;6.50;;;12.20;99.90;;;;;;5032272;28;20014;-75
2021/12/03 00:34:03;;;;;;;19.60;6.22;;;12.20;99.90;;;;;;5032483;28;20037;-74
2021/12/03 00:36:29;;;;;;;15.02;5.32;;;12.30;99.90;;;;;;5032451;28;20097;-76
2021/12/03 00:38:58;;;;;;;19.77;5.65;;;12.30;99.90;;;;;;5032410;28;20152;-73
2021/12/03 00:41:28;;;;;;;14.27;5.10;;;12.30;99.90;;;;;;5032461;28;20029;-73
2021/12/03 00:43:53;;;;;;;19.80;5.90;;;12.30;99.90;;;;;;5032601;28;20037;-73
2021/12/03 00:46:21;;;;;;;20.08;5.63;;;12.30;99.90;;;;;;5031802;28;20032;-73
2021/12/03 00:48:49;;;;;;;14.88;5.07;;;12.30;99.90;;;;;;5038313;28;20033;-75
2021/12/03 00:51:18;;;;;;;15.82;5.93;;;12.30;99.90;;;;;;5038367;28;20021;-74
2021/12/03 00:53:45;;;;;;;16.15;5.15;;;12.30;99.90;;;;;;5036308;28;20112;-74
2021/12/03 00:56:15;;;;;;;16.45;6.18;;;12.30;99.90;;;;;;5035820;28;20026;-74
2021/12/03 00:58:41;;;;;;;16.30;4.80;;;12.30;99.90;;;;;;5035695;28;20064;-74
2021/12/03 01:01:07;;;;;;;16.60;4.72;;;12.30;99.90;;;;;;5035654;28;20033;-74
2021/12/03 01:03:34;;;;;;;21.35;5.00;;;12.20;99.90;;;;;;5035713;28;20029;-73
2021/12/03 01:06:00;;;;;;;17.55;5.38;;;12.20;99.90;;;;;;5035784;28;20028;-73
2021/12/03 01:08:26;;;;;;;18.73;4.47;;;12.20;99.90;;;;;;5034546;28;20029;-73
2021/12/03 01:10:52;;;;;;;19.88;4.20;;;12.20;99.90;;;;;;5035525;28;20429;-73
2021/12/03 01:13:18;;;;;;;15.63;3.70;;;12.20;99.90;;;;;;5035507;28;20025;-73
2021/12/03 01:15:45;;;;;;;15.57;4.00;;;12.20;99.80;;;;;;5035160;28;20474;-73
2021/12/03 01:18:11;;;;;;;15.98;4.22;;;12.20;99.70;;;;;;5035101;28;20494;-74
2021/12/03 01:20:40;;;;;;;13.43;3.72;;;12.30;99.50;;;;;;5035545;28;20035;-72
2021/12/03 01:23:06;;;;;;;17.20;4.10;;;12.30;99.20;;;;;;5035045;28;20494;-73
2021/12/03 01:25:32;;;;;;;16.90;4.35;;;12.40;99.00;;;;;;5034947;28;20072;-73
2021/12/03 01:28:00;;;;;;;15.68;3.38;;;12.40;98.80;;;;;;5034731;28;20045;-71
2021/12/03 01:30:28;;;;;;;17.42;3.47;;;12.40;98.70;;;;;;5034875;28;20033;-73
2021/12/03 01:32:54;;;;;;;17.42;4.05;;;12.40;98.60;;;;;;5034867;28;20076;-73
2021/12/03 01:35:20;;;;;;;20.90;4.50;;;12.40;98.50;;;;;;5033494;28;20397;-73
2021/12/03 01:37:47;;;;;;;20.73;4.10;;;12.40;98.50;;;;;;5034587;28;20075;-72
2021/12/03 01:40:16;;;;;;;14.52;3.45;;;12.40;98.40;;;;;;5034625;28;20479;-73
2021/12/03 01:42:44;;;;;;;17.63;3.25;;;12.40;98.30;;;;;;5034416;28;20026;-73
2021/12/03 01:45:16;;;;;;;15.32;3.40;;;12.40;98.20;;;;;;5034579;28;20033;-73
2021/12/03 01:47:43;;;;;;;17.65;3.22;;;12.40;98.00;;;;;;5034497;28;20495;-72
2021/12/03 01:50:10;;;;;;;18.52;3.50;;;12.40;97.90;;;;;;5034352;28;20100;-72
2021/12/03 01:52:39;;;;;;;19.92;3.55;;;12.40;97.60;;;;;;5034315;28;20041;-74
2021/12/03 01:55:08;;;;;;;21.85;4.20;;;12.40;97.50;;;;;;5034325;28;20474;-73
2021/12/03 01:57:34;;;;;;;14.85;3.80;;;12.40;97.50;;;;;;5033927;28;20041;-73
2021/12/03 01:59:59;;;;;;;21.45;4.97;;;12.40;97.40;;;;;;5034337;28;20036;-74
2021/12/03 02:02:27;;;;;;;15.40;4.63;;;12.30;97.60;;;;;;5034121;28;20045;-71
2021/12/03 02:04:56;;;;;;;15.27;4.35;;;12.20;98.00;;;;;;5034203;28;20029;-72
2021/12/03 02:07:22;;;;;;;18.60;4.20;;;12.20;98.20;;;;;;5034077;28;20025;-73
2021/12/03 02:09:48;;;;;;;18.23;3.72;;;12.20;98.40;;;;;;5032730;28;20128;-73
2021/12/03 02:12:13;;;;;;;17.30;4.85;;;12.10;98.50;;;;;;5034040;28;20018;-73
2021/12/03 02:14:39;;;;;;;15.57;5.25;;;12.10;98.60;;;;;;5033797;28;20029;-73
2021/12/03 02:17:05;;;;;;;16.10;3.97;;;12.10;98.70;;;;;;5033905;28;20097;-72
2021/12/03 02:19:31;;;;;;;19.60;5.00;;;12.20;98.80;;;;;;5033894;28;20057;-73
2021/12/03 02:21:57;;;;;;;19.58;4.88;;;12.20;98.80;;;;;;5033969;28;20356;-73
2021/12/03 02:24:23;;;;;;;15.55;3.47;;;12.20;98.70;;;;;;5032429;28;20033;-72
2021/12/03 02:26:50;;;;;;;16.05;3.72;;;12.20;98.60;;;;;;5033575;28;20045;-73
2021/12/03 02:29:17;;;;;;;19.40;3.38;;;12.20;98.60;;;;;;5033833;28;20033;-72
2021/12/03 02:31:42;;;;;;;16.40;3.70;;;12.20;98.20;;;;;;5033688;28;20057;-72
2021/12/03 02:34:08;;;;;;;15.25;3.83;;;12.20;98.10;;;;;;5033387;28;20352;-72
2021/12/03 02:36:34;;;;;;;17.90;3.42;;;12.20;98.00;;;;;;5033653;28;20364;-72
2021/12/03 02:39:00;;;;;;;17.42;3.42;;;12.10;97.90;;;;;;5033444;28;20445;-73
2021/12/03 02:41:26;;;;;;;13.43;2.63;;;12.10;97.70;;;;;;5033448;28;20029;-72
2021/12/03 02:43:52;;;;;;;14.90;2.92;;;12.10;97.60;;;;;;5033545;28;20029;-73
2021/12/03 02:46:18;;;;;;;13.25;3.45;;;12.20;97.50;;;;;;5033912;28;20021;-72
2021/12/03 02:48:44;;;;;;;18.77;2.97;;;12.20;97.40;;;;;;5033293;28;20036;-72
2021/12/03 02:51:10;;;;;;;21.75;3.03;;;12.30;97.00;;;;;;5033570;28;20033;-74
2021/12/03 02:53:37;;;;;;;14.07;3.08;;;12.40;96.90;;;;;;5033295;28;20029;-73
2021/12/03 02:56:05;;;;;;;12.40;2.58;;;12.40;96.70;;;;;;5033226;28;20390;-73
2021/12/03 02:58:31;;;;;;;17.55;2.90;;;12.40;96.70;;;;;;5032971;28;20105;-72
2021/12/03 03:00:57;;;;;;;14.57;2.80;;;12.40;96.60;;;;;;5032965;28;20104;-72
2021/12/03 03:03:23;;;;;;;13.90;3.10;;;12.50;96.60;;;;;;5033133;28;20115;-73
2021/12/03 03:05:54;;;;;;;18.05;3.10;;;12.60;96.40;;;;;;5033337;28;20502;-73
2021/12/03 03:08:20;;;;;;;16.23;2.80;;;12.60;96.00;;;;;;5033207;28;20022;-72
2021/12/03 03:10:46;;;;;;;13.82;2.80;;;12.50;96.00;;;;;;5032257;28;20059;-73
2021/12/03 03:13:12;;;;;;;16.10;2.92;;;12.50;96.00;;;;;;5032870;28;20017;-74
2021/12/03 03:15:39;;;;;;;13.52;2.97;;;12.50;96.10;;;;;;5032907;28;20147;-74
2021/12/03 03:18:11;;;;;;;16.52;3.17;;;12.50;96.00;;;;;;5032758;28;20108;-73
2021/12/03 03:20:39;;;;;;;19.70;3.53;;;12.50;96.10;;;;;;5032638;28;20097;-73
2021/12/03 03:23:06;;;;;;;19.95;3.05;;;12.50;95.90;;;;;;5032792;28;20026;-75
2021/12/03 03:25:32;;;;;;;21.15;3.33;;;12.50;95.70;;;;;;5032725;28;20022;-74
2021/12/03 03:27:58;;;;;;;16.23;3.35;;;12.50;95.70;;;;;;5032304;28;20061;-74
2021/12/03 03:30:25;;;;;;;14.88;2.60;;;12.40;95.60;;;;;;5032692;28;20049;-73
2021/12/03 03:32:52;;;;;;;12.02;2.90;;;12.40;95.70;;;;;;5032908;28;20028;-73
2021/12/03 03:35:17;;;;;;;12.48;2.60;;;12.40;95.60;;;;;;5032722;28;20083;-73
2021/12/03 03:37:43;;;;;;;16.50;3.60;;;12.40;95.40;;;;;;5032703;28;20033;-73
2021/12/03 03:40:11;;;;;;;11.70;2.65;;;12.40;95.40;;;;;;5032699;28;20037;-74
2021/12/03 03:42:37;;;;;;;15.65;2.80;;;12.30;95.30;;;;;;5032614;28;20022;-74
2021/12/03 03:45:07;;;;;;;17.27;3.08;;;12.20;95.30;;;;;;5032614;28;20029;-74
2021/12/03 03:47:33;;;;;;;17.05;2.60;;;12.20;95.30;;;;;;5032678;28;20014;-74
2021/12/03 03:49:59;;;;;;;13.52;2.60;;;12.20;95.20;;;;;;5032501;28;20041;-74
2021/12/03 03:52:28;;;;;;;15.77;2.72;;;12.20;95.20;;;;;;5032731;28;20032;-72
2021/12/03 03:54:53;;;;;;;15.38;3.17;;;12.20;95.10;;;;;;5032526;28;20478;-74
2021/12/03 03:57:19;;;;;;;15.07;3.13;;;12.10;95.00;;;;;;5032588;28;20067;-74
2021/12/03 03:59:45;;;;;;;15.80;2.85;;;12.00;95.10;;;;;;5030945;28;20034;-73
2021/12/03 04:02:11;;;;;;;15.88;3.10;;;12.00;95.40;;;;;;5032353;28;20383;-75
2021/12/03 04:04:36;;;;;;;16.77;3.38;;;12.00;95.30;;;;;;5031157;28;20033;-73
2021/12/03 04:07:03;;;;;;;14.52;2.78;;;12.00;95.30;;;;;;5032686;28;20506;-75
2021/12/03 04:09:28;;;;;;;11.50;3.22;;;11.90;95.20;;;;;;5032469;28;20056;-74
2021/12/03 04:11:54;;;;;;;11.23;2.50;;;11.90;95.10;;;;;;5032220;28;20109;-74
2021/12/03 04:14:20;;;;;;;14.65;2.85;;;12.00;95.30;;;;;;5032152;28;20040;-74
2021/12/03 04:16:46;;;;;;;14.95;3.72;;;12.00;95.10;;;;;;5032223;28;20425;-74
2021/12/03 04:19:12;;;;;;;13.32;2.88;;;12.10;95.30;;;;;;5032138;28;20041;-74
2021/12/03 04:21:38;;;;;;;18.95;3.25;;;12.10;95.20;;;;;;5034007;28;20024;-74
2021/12/03 04:24:04;;;;;;;13.30;2.88;;;12.20;95.10;;;;;;5036153;28;20025;-73
2021/12/03 04:26:30;;;;;;;15.50;3.40;;;12.20;95.10;;;;;;5035774;28;20037;-73
2021/12/03 04:28:56;;;;;;;13.40;2.95;;;12.20;95.00;;;;;;5035785;28;20120;-74
2021/12/03 04:31:22;;;;;;;17.65;3.30;;;12.20;94.80;;;;;;5035848;28;20026;-73
2021/12/03 04:33:48;;;;;;;20.08;3.33;;;12.20;94.90;;;;;;5035872;28;20032;-74
2021/12/03 04:36:14;;;;;;;15.98;3.28;;;12.30;94.80;;;;;;5034546;28;20030;-74
2021/12/03 04:38:39;;;;;;;17.83;3.17;;;12.20;94.70;;;;;;5035493;28;20108;-73
2021/12/03 04:41:05;;;;;;;18.73;3.20;;;12.20;94.70;;;;;;5035500;28;20045;-75
2021/12/03 04:43:32;;;;;;;11.10;2.75;;;12.20;94.70;;;;;;5035727;28;20037;-73
2021/12/03 04:45:57;;;;;;;14.52;2.97;;;12.20;94.70;;;;;;5035567;28;20036;-74
2021/12/03 04:48:23;;;;;;;24.88;3.15;;;12.20;94.60;;;;;;5035560;28;20014;-73
2021/12/03 04:50:49;;;;;;;15.23;3.47;;;12.30;94.60;;;;;;5035457;28;20052;-75
2021/12/03 04:53:16;;;;;;;19.50;3.20;;;12.20;94.50;;;;;;5035380;28;20053;-72
2021/12/03 04:55:42;;;;;;;18.02;3.28;;;12.20;94.50;;;;;;5035390;28;20029;-73
2021/12/03 04:58:08;;;;;;;13.23;2.92;;;12.20;94.40;;;;;;5034395;28;20478;-72
2021/12/03 05:00:38;;;;;;;15.32;2.72;;;12.20;94.40;;;;;;5035660;28;20108;-73
2021/12/03 05:03:06;;;;;;;19.95;3.38;;;12.10;94.40;;;;;;5035003;28;20332;-73
2021/12/03 05:05:33;;;;;;;12.43;3.58;;;12.00;94.30;;;;;;5035355;28;20116;-73
2021/12/03 05:08:07;;;;;;;18.75;2.83;;;12.00;94.50;;;;;;5039022;28;20033;-74
2021/12/03 05:10:33;;;;;;;;;;;12.00;94.40;;;;;;5036211;28;20038;-71
2021/12/03 05:13:08;;;;;;;11.43;3.20;;;11.90;94.30;;;;;;5035224;28;20420;-74
2021/12/03 05:15:36;;;;;;;19.77;3.67;;;11.90;94.40;;;;;;5035144;28;20018;-74
2021/12/03 05:18:03;;;;;;;13.48;3.20;;;11.90;94.40;;;;;;5035097;28;20053;-74
2021/12/03 05:20:29;;;;;;;15.38;2.80;;;11.90;94.40;;;;;;5033672;28;20026;-73
2021/12/03 05:22:55;;;;;;;14.32;2.90;;;11.90;94.20;;;;;;5034942;28;20044;-73
2021/12/03 05:25:21;;;;;;;16.02;2.75;;;11.90;94.40;;;;;;5034872;28;20049;-74
2021/12/03 05:27:48;;;;;;;16.85;2.92;;;12.00;94.20;;;;;;5034807;28;20049;-74
2021/12/03 05:30:14;;;;;;;13.63;2.95;;;12.00;94.20;;;;;;5034913;28;20017;-74
2021/12/03 05:32:40;;;;;;;19.58;3.95;;;12.00;94.30;;;;;;5033897;28;20391;-74
2021/12/03 05:35:08;;;;;;;17.52;3.35;;;12.00;94.00;;;;;;5034839;28;20041;-74
2021/12/03 05:37:34;;;;;;;19.02;3.70;;;12.00;93.80;;;;;;5034714;28;20383;-73
2021/12/03 05:39:59;;;;;;;14.63;3.50;;;11.90;93.80;;;;;;5034957;28;20033;-75
2021/12/03 05:42:25;;;;;;;10.38;2.92;;;11.80;93.90;;;;;;5034761;28;20022;-75
2021/12/03 05:44:53;;;;;;;17.08;3.10;;;11.80;94.00;;;;;;5035992;28;20032;-75
2021/12/03 05:47:19;;;;;;;12.68;2.83;;;11.80;94.10;;;;;;5036237;28;20045;-78
2021/12/03 05:49:45;;;;;;;15.07;2.85;;;11.70;94.00;;;;;;5034636;28;20025;-74
2021/12/03 05:52:11;;;;;;;17.05;3.47;;;11.70;94.00;;;;;;5034585;28;20029;-73
2021/12/03 05:54:37;;;;;;;16.80;3.53;;;11.70;94.00;;;;;;5034613;28;20056;-74
2021/12/03 05:57:03;;;;;;;19.42;3.35;;;11.60;94.00;;;;;;5034564;28;20568;-74
2021/12/03 05:59:28;;;;;;;17.63;3.50;;;11.60;94.20;;;;;;5034447;28;20506;-76
2021/12/03 06:01:54;;;;;;;19.92;4.05;;;11.50;94.30;;;;;;5034343;28;20086;-75
2021/12/03 06:04:20;;;;;;;16.25;3.33;;;11.50;94.30;;;;;;5033788;28;20029;-75
2021/12/03 06:06:45;;;;;;;14.23;3.03;;;11.50;94.30;;;;;;5034717;28;20037;-75
2021/12/03 06:09:11;;;;;;;17.20;2.90;;;11.40;94.20;;;;;;5034143;28;20025;-74
2021/12/03 06:11:38;;;;;;;15.80;2.92;;;11.40;94.20;;;;;;5034171;28;20033;-72
2021/12/03 06:14:03;;;;;;;20.48;3.20;;;11.40;94.10;;;;;;5034860;28;20056;-74
2021/12/03 06:16:29;;;;;;;17.77;3.13;;;11.40;94.20;;;;;;5034100;28;20459;-73
2021/12/03 06:18:55;;;;;;;17.80;3.17;;;11.30;94.10;;;;;;5034164;28;20057;-73
2021/12/03 06:21:21;;;;;;;23.05;4.07;;;11.30;94.10;;;;;;5032326;28;20483;-75
2021/12/03 06:23:47;;;;;;;16.08;3.33;;;11.30;94.00;;;;;;5033650;28;20394;-74
2021/12/03 06:26:13;;;;;;;16.67;4.22;;;11.30;94.00;;;;;;5033733;28;20040;-73
2021/12/03 06:28:40;;;;;;;14.80;3.53;;;11.30;94.20;;;;;;5033548;28;20100;-73
2021/12/03 06:31:07;;;;;;;15.40;3.10;;;11.30;94.20;;;;;;5033486;28;20021;-73
2021/12/03 06:33:33;;;;;;;16.77;3.35;;;11.30;94.20;;;;;;5033367;28;20088;-73
2021/12/03 06:35:58;;;;;;;18.85;3.95;;;11.30;94.00;;;;;;5038866;28;20022;-74
2021/12/03 06:38:25;;;;;;;16.17;3.53;;;11.30;94.00;;;;;;5043569;28;20033;-72
2021/12/03 06:40:53;;;;;;;13.05;3.55;;;11.20;94.10;;;;;;5043213;28;20101;-72
2021/12/03 06:43:19;;;;;;;15.65;3.00;;;11.20;94.20;;;;;;5041843;28;20029;-71
2021/12/03 06:45:45;;;;;;;20.58;3.85;;;11.20;94.00;;;;;;5043515;28;20527;-75
2021/12/03 06:48:12;;;;;;;16.42;3.95;;;11.20;94.20;;;;;;5053158;28;20048;-73
2021/12/03 06:50:38;;;;;;;14.82;3.28;;;11.20;94.20;;;;;;5053286;28;20025;-73
2021/12/03 06:53:07;;;;;;;13.60;3.78;;;11.20;94.00;;;;;;5054681;28;20428;-71
2021/12/03 06:55:57;;;;;;;22.55;3.67;;;11.20;94.00;;;;;;5052416;28;20389;-75
2021/12/03 06:58:26;;;;;;;19.60;4.53;;;11.10;94.00;;;;;;5050137;28;20121;-76
2021/12/03 07:00:56;;;;;;;19.30;4.47;;;11.10;93.90;;;;;;5041788;28;20040;-74
2021/12/03 07:03:22;;;;;;;13.30;3.78;;;11.20;94.20;;;;;;5040043;28;20375;-72
2021/12/03 07:05:48;;;;;;;16.13;3.90;;;11.20;94.10;;;;;;5033656;28;20059;-73
2021/12/03 07:08:14;;;;;;;14.45;3.70;;;11.20;94.00;;;;;;5033530;28;20025;-69
2021/12/03 07:10:40;;;;;;;12.48;3.08;;;11.30;94.10;;;;;;5033011;28;20026;-72
2021/12/03 07:13:07;;;;;;;14.10;3.83;;;11.30;94.00;;;;;;5034429;28;20377;-74
2021/12/03 07:15:34;;;;;;;12.18;3.70;;;11.30;93.90;;;;;;5046724;28;20029;-72
2021/12/03 07:18:00;;;;;;;15.20;3.50;;;11.30;93.80;;;;;;5052674;28;20055;-72
2021/12/03 07:20:27;;;;;;;14.13;3.40;;;11.40;93.80;;;;;;5052877;28;20025;-74
2021/12/03 07:22:54;;;;;;;15.88;3.80;;;11.50;93.80;;;;;;5052673;28;20027;-70
2021/12/03 07:25:20;;;;;;;20.42;4.05;;;11.60;93.40;;;;;;5052656;28;20025;-72
2021/12/03 07:27:46;;;;;;;18.00;3.85;;;11.60;93.20;;;;;;5052547;28;20128;-73
2021/12/03 07:30:14;;;;;;;17.92;3.80;;;11.60;93.10;;;;;;5051446;28;20033;-73
2021/12/03 07:32:40;;;;;;;20.75;4.32;;;11.60;93.30;;;;;;5052707;28;20021;-75
2021/12/03 07:35:07;;;;;;;21.10;4.63;;;11.70;93.30;;;;;;5052748;28;20033;-71
2021/12/03 07:37:34;;;;;;;13.57;3.50;;;11.60;93.20;;;;;;5049353;28;20048;-73
2021/12/03 07:40:03;;;;;;;17.60;3.80;;;11.60;93.40;;;;;;5052627;28;20386;-74
2021/12/03 07:42:29;;;;;;;24.05;4.68;;;11.60;93.30;;;;;;5051246;28;20035;-73
2021/12/03 07:44:55;;;;;;;26.95;4.90;;;11.60;93.30;;;;;;5052453;28;20415;-74
2021/12/03 07:47:20;;;;;;;26.80;5.72;;;11.60;93.30;;;;;;5052376;28;20029;-72
2021/12/03 07:49:48;;;;;;;15.50;3.70;;;11.60;93.20;;;;;;5052250;28;20078;-73
2021/12/03 07:52:15;;;;;;;17.67;4.22;;;11.70;93.20;;;;;;5052207;28;20020;-73
2021/12/03 07:54:41;;;;;;;23.48;4.68;;;11.70;93.30;;;;;;5052449;28;20048;-73
2021/12/03 07:57:07;;;;;;;19.67;4.65;;;11.60;93.30;;;;;;5055028;28;20471;-74
2021/12/03 07:59:33;;;;;;;23.30;4.90;;;11.60;93.50;;;;;;5056399;28;20082;-74
2021/12/03 08:01:59;;;;;;;17.90;5.78;;;11.60;93.70;;;;;;5056501;28;20017;-75
2021/12/03 08:04:24;;;;;;;19.90;5.80;;;11.60;93.90;;;;;;5053330;28;20029;-75
2021/12/03 08:06:53;;;;;;;19.40;6.13;;;11.60;94.50;;;;;;5053113;28;20030;-74
2021/12/03 08:09:20;;;;;;;15.90;5.90;;;11.60;94.40;;;;;;5056427;28;20108;-75
2021/12/03 08:11:45;;;;;;;17.95;6.32;;;11.60;94.60;;;;;;5054791;28;20021;-73
2021/12/03 08:14:11;;;;;;;21.58;7.22;;;11.60;94.60;;;;;;5056120;28;20047;-72
2021/12/03 08:16:38;;;;;;;21.83;7.07;;;11.60;94.80;;;;;;5054458;28;20111;-73
2021/12/03 08:19:04;;;;;;;29.73;7.90;;;11.50;95.20;;;;;;5056115;28;20033;-74
2021/12/03 08:21:30;;;;;;;15.40;7.95;;;11.50;95.20;;;;;;5054816;28;20016;-72
2021/12/03 08:23:57;;;;;;;20.27;8.68;;;11.50;95.60;;;;;;5056096;28;20029;-74
2021/12/03 08:26:22;;;;;;;20.63;8.70;;;11.50;95.90;;;;;;5055850;28;20390;-74
2021/12/03 08:28:48;;;;;;;22.95;9.48;;;11.50;96.10;;;;;;5055869;28;20041;-71
2021/12/03 08:31:15;;;;;;;21.33;8.88;;;11.40;96.70;;;;;;5056664;28;20032;-74
2021/12/03 08:33:42;;;;;;;20.40;9.00;;;11.50;96.70;;;;;;5055683;28;20091;-73
2021/12/03 08:36:08;;;;;;;25.63;8.77;;;11.50;97.20;;;;;;5055868;28;20078;-72
2021/12/03 08:38:34;;;;;;;22.05;8.43;;;11.60;97.10;;;;;;5055740;28;20068;-75
2021/12/03 08:41:00;;;;;;;23.73;7.97;;;11.60;97.40;;;;;;5056036;28;20086;-74
2021/12/03 08:43:26;;;;;;;15.15;7.63;;;11.70;97.30;;;;;;5055955;28;20021;-73
2021/12/03 08:45:55;;;;;;;16.45;6.78;;;11.70;97.40;;;;;;5056328;28;20466;-74
2021/12/03 08:48:23;;;;;;;15.23;6.30;;;11.70;97.20;;;;;;5055962;28;20025;-74
2021/12/03 08:50:53;;;;;;;18.65;7.03;;;11.70;97.50;;;;;;5056337;28;20416;-74
2021/12/03 08:55:47;;;;;;;16.95;6.30;;;11.80;97.30;;;;;;5056535;28;20033;-74
2021/12/03 08:58:16;;;;;;;17.58;6.88;;;11.80;97.30;;;;;;5055877;28;20025;-74
2021/12/03 09:00:42;;;;;;;16.05;6.72;;;11.90;97.30;;;;;;5055597;28;20025;-73
2021/12/03 09:03:07;;;;;;;22.23;6.00;;;11.90;97.30;;;;;;5055673;28;20024;-74
2021/12/03 09:05:36;;;;;;;17.05;5.90;;;12.10;97.10;;;;;;5055847;28;20032;-75
2021/12/03 09:08:03;;;;;;;21.45;6.70;;;12.20;97.10;;;;;;5054512;28;20142;-76
2021/12/03 09:10:28;;;;;;;19.67;6.03;;;12.30;96.70;;;;;;5055032;28;20371;-73
2021/12/03 09:12:54;;;;;;;19.52;5.32;;;12.30;96.50;;;;;;5055371;28;20036;-74
2021/12/03 09:18:21;;;;;;;16.88;5.53;;;12.40;96.30;;;;;;5061706;28;20054;-74
2021/12/03 09:20:54;;;;;;;13.70;4.93;;;12.40;96.20;;;;;;5055208;28;20371;-73
2021/12/03 09:26:08;;;;;;;16.40;5.15;;;12.30;96.00;;;;;;5055639;28;20154;-73
2021/12/03 09:28:37;;;;;;;19.20;5.00;;;12.20;96.00;;;;;;5055138;28;20555;-74
2021/12/03 09:31:04;;;;;;;11.93;4.40;;;12.20;96.10;;;;;;5054612;28;20028;-74
2021/12/03 09:33:31;;;;;;;12.85;4.32;;;12.20;96.20;;;;;;5054760;28;20094;-73
2021/12/03 09:36:01;;;;;;;15.65;4.72;;;12.10;96.10;;;;;;5054577;28;20017;-73
2021/12/03 09:38:31;;;;;;;17.63;4.63;;;12.10;96.20;;;;;;5054410;28;20037;-73
2021/12/03 09:41:05;;;;;;;14.63;4.65;;;12.10;96.20;;;;;;5054506;28;20021;-74
2021/12/03 09:43:32;;;;;;;13.45;4.80;;;12.00;96.20;;;;;;5054562;28;20052;-72
2021/12/03 09:46:16;;;;;;;20.77;4.63;;;12.00;96.30;;;;;;5054722;28;20467;-73
2021/12/03 09:48:56;;;;;;;20.48;6.30;;;12.00;96.40;;;;;;5054793;28;20029;-72
2021/12/03 09:51:25;;;;;;;14.73;4.50;;;11.90;96.40;;;;;;5054435;28;20474;-71
2021/12/03 09:56:34;;;;;;;;;;;11.90;96.40;;;;;;5054413;28;20090;-71
2021/12/03 10:02:08;;;;;;;16.73;3.80;;;11.90;96.10;;;;;;5054215;28;20166;-70
2021/12/03 10:12:47;;;;;;;17.23;4.20;;;12.30;95.40;;;;;;5054655;28;20179;-70
2021/12/03 10:15:24;;;;;;;9.75;3.38;;;12.40;95.30;;;;;;5054474;28;20021;-70
2021/12/03 10:18:17;;;;;;;12.18;3.35;;;12.50;94.90;;;;;;5054318;28;20032;-72
2021/12/03 10:37:48;;;;;;;15.50;3.42;;;12.70;94.80;;;;;;5071737;28;20360;-72
2021/12/03 10:40:24;;;;;;;16.50;3.97;;;12.70;94.40;;;;;;5068980;28;20141;-74
2021/12/03 10:56:43;;;;;;;14.23;3.33;;;13.10;93.80;;;;;;5054034;28;20033;-74
2021/12/03 11:40:47;;;;;;;17.33;4.10;;;14.30;91.90;;;;;;5052580;28;20091;-72
2021/12/03 12:42:09;;;;;;;7.35;2.67;;;14.60;86.90;;;;;;5060089;28;20068;-73
2021/12/03 14:40:36;;;;;;;;;;;15.00;76.50;;;;;;5054350;28;20426;-74
2021/12/03 14:48:22;;;;;;;5.15;1.92;;;14.80;77.10;;;;;;5053792;28;20037;-75
2021/12/03 14:57:17;;;;;;;7.10;2.03;;;14.50;76.90;;;;;;5071201;28;20039;-73
2021/12/03 15:00:10;;;;;;;8.90;2.03;;;14.40;77.10;;;;;;5054961;28;20045;-71
2021/12/03 15:03:58;;;;;;;6.30;2.80;;;14.40;77.20;;;;;;5052899;28;20024;-71
2021/12/03 15:09:00;;;;;;;6.25;2.28;;;14.30;77.80;;;;;;5052904;28;20119;-75
2021/12/03 15:35:48;;;;;;;6.70;2.47;;;13.60;79.60;;;;;;5052381;28;20029;-73
2021/12/03 15:57:11;;;;;;;7.97;2.58;;;13.20;79.10;;;;;;5052214;28;20033;-73
2021/12/03 16:10:16;;;;;;;10.07;2.47;;;13.00;79.00;;;;;;5052298;28;20025;-72
2021/12/03 16:20:55;;;;;;;5.22;1.83;;;12.90;77.90;;;;;;5056110;28;20089;-74
2021/12/03 16:26:07;;;;;;;4.95;1.95;;;12.80;77.40;;;;;;5056467;28;20033;-72
2021/12/03 16:45:16;;;;;;;4.75;2.13;;;12.40;77.00;;;;;;5056070;28;20095;-73
2021/12/03 16:53:18;;;;;;;4.63;1.95;;;12.30;77.20;;;;;;5055291;28;20390;-74
2021/12/03 16:55:54;;;;;;;6.00;2.05;;;12.20;76.80;;;;;;5055902;28;20021;-75
2021/12/03 16:58:19;;;;;;;5.07;2.00;;;12.20;77.00;;;;;;5055431;28;20094;-73
2021/12/03 17:00:52;;;;;;;3.55;1.90;;;12.10;77.00;;;;;;5055624;28;20025;-73
2021/12/03 17:03:29;;;;;;;3.67;1.67;;;12.10;77.20;;;;;;5055665;28;20060;-73
2021/12/03 17:13:59;;;;;;;7.95;2.15;;;11.90;77.60;;;;;;5055459;28;20477;-73
2021/12/03 17:17:38;;;;;;;5.40;1.92;;;11.90;78.20;;;;;;5055149;28;20048;-73
2021/12/03 17:25:07;;;;;;;2.95;1.58;;;11.70;78.50;;;;;;5054992;28;19915;-73
2021/12/03 17:52:09;;;;;;;5.40;2.22;;;11.30;79.80;;;;;;5055387;28;20108;-73
2021/12/03 17:57:28;;;;;;;3.67;1.90;;;11.30;80.60;;;;;;5055595;28;20489;-73
2021/12/03 17:59:54;;;;;;;7.22;2.00;;;11.20;80.20;;;;;;5055464;28;20474;-72
2021/12/03 18:07:34;;;;;;;4.50;1.98;;;11.10;80.70;;;;;;5055007;28;20029;-72
2021/12/03 18:48:18;;;;;;;2.63;1.55;;;10.70;82.50;;;;;;5053666;28;19927;-73
2021/12/03 18:53:54;;;;;;;4.18;1.90;;;10.70;83.10;;;;;;5053546;28;20103;-74
2021/12/03 18:56:28;;;;;;;4.70;1.77;;;10.60;82.40;;;;;;5053367;28;20094;-72
2021/12/03 18:58:57;;;;;;;4.45;1.70;;;10.60;82.20;;;;;;5053247;28;20037;-74
2021/12/03 19:01:27;;;;;;;3.45;1.60;;;10.50;82.70;;;;;;5052196;28;20478;-74
2021/12/03 19:06:29;;;;;;;3.03;1.88;;;10.50;83.10;;;;;;5053990;28;20448;-74
2021/12/03 19:09:06;;;;;;;4.60;2.05;;;10.40;83.10;;;;;;5053358;28;20116;-72
2021/12/03 19:14:08;;;;;;;3.35;1.80;;;10.40;82.90;;;;;;5053121;28;20029;-71
2021/12/03 19:16:34;;;;;;;5.82;1.98;;;10.40;83.40;;;;;;5051735;28;20079;-72
2021/12/03 19:19:03;;;;;;;4.47;2.00;;;10.40;83.50;;;;;;5045800;28;20072;-72
2021/12/03 19:21:33;;;;;;;4.20;1.90;;;10.40;83.70;;;;;;5042003;28;20022;-71
2021/12/03 19:24:01;;;;;;;5.13;2.40;;;10.30;84.00;;;;;;5036845;28;20092;-72
2021/12/03 19:26:29;;;;;;;4.72;1.88;;;10.40;84.10;;;;;;5035933;28;20034;-74
2021/12/03 19:29:00;;;;;;;4.85;2.38;;;10.40;84.40;;;;;;5033582;28;20030;-75
2021/12/03 19:31:27;;;;;;;5.70;2.60;;;10.40;84.00;;;;;;5033515;28;20443;-76
2021/12/03 19:33:52;;;;;;;7.95;2.92;;;10.40;84.80;;;;;;5035028;28;20026;-74
2021/12/03 19:36:24;;;;;;;7.57;3.30;;;10.40;84.80;;;;;;5033369;28;20032;-74
2021/12/03 19:38:51;;;;;;;5.22;2.60;;;10.40;85.00;;;;;;5033133;28;20035;-73
2021/12/03 19:42:04;;;;;;;12.27;4.80;;;10.30;85.00;;;;;;5040856;28;20037;-72
2021/12/03 19:44:16;;;;;;;10.15;4.97;;;10.30;84.90;;;;;;5045255;28;20032;-75
2021/12/03 19:46:48;;;;;;;7.45;3.08;;;10.40;85.30;;;;;;5042098;28;20025;-75
2021/12/03 19:51:59;;;;;;;6.97;3.17;;;10.40;85.40;;;;;;5032620;28;20427;-75
2021/12/03 19:54:24;;;;;;;7.15;3.88;;;10.30;85.30;;;;;;5033060;28;20025;-73
2021/12/03 19:56:51;;;;;;;6.53;3.20;;;10.30;85.30;;;;;;5033115;28;20022;-75
2021/12/03 19:59:18;;;;;;;8.18;2.90;;;10.30;85.70;;;;;;5034339;28;20041;-73
2021/12/03 20:01:45;;;;;;;7.85;3.08;;;10.30;85.60;;;;;;5034038;28;20390;-74
2021/12/03 20:04:13;;;;;;;6.13;2.83;;;10.20;86.20;;;;;;5032764;28;20029;-76
2021/12/03 20:06:42;;;;;;;6.30;3.00;;;10.20;85.50;;;;;;5034021;28;20022;-79
2021/12/03 20:09:12;;;;;;;7.15;3.50;;;10.10;85.90;;;;;;5033379;28;20033;-74
2021/12/03 20:11:48;;;;;;;5.50;2.83;;;10.10;86.10;;;;;;5032788;28;20026;-74
2021/12/03 20:14:16;;;;;;;5.78;2.70;;;10.10;85.70;;;;;;5032894;28;20041;-75
2021/12/03 20:19:49;;;;;;;5.38;2.45;;;10.10;85.90;;;;;;5051864;28;20386;-75
2021/12/03 20:22:20;;;;;;;4.60;2.35;;;10.00;86.00;;;;;;5050367;28;20041;-75
2021/12/03 20:27:40;;;;;;;5.35;2.80;;;10.00;85.50;;;;;;5053288;28;20509;-75
2021/12/03 20:30:14;;;;;;;6.22;2.75;;;10.00;86.10;;;;;;5053149;28;20336;-74
2021/12/03 20:32:47;;;;;;;5.82;2.42;;;10.00;85.50;;;;;;5052975;28;20041;-74
2021/12/03 20:35:36;;;;;;;7.57;2.90;;;9.90;86.70;;;;;;5051835;28;20087;-75
2021/12/03 20:38:02;;;;;;;6.45;3.00;;;9.90;86.50;;;;;;5052688;28;20025;-76